createdAt,value
2023-10-28T00:03:07.422Z,98348.34
2023-10-28T00:13:10.509Z,98348.53
2023-10-28T00:23:15.501Z,98341.75
2023-10-28T00:33:18.303Z,98334.25
2023-10-28T00:43:25.369Z,98337.16
2023-10-28T00:53:28.265Z,98347.66
2023-10-28T01:03:32.516Z,98338.53
2023-10-28T01:13:35.886Z,98344.59
2023-10-28T01:23:40.137Z,98349.22
2023-10-28T01:33:43.854Z,98341.31
2023-10-28T01:43:48.034Z,98354.72
2023-10-28T01:53:52.497Z,98368.41
2023-10-28T02:03:57.338Z,98371.34
2023-10-28T02:14:00.696Z,98380.94
2023-10-28T02:24:05.517Z,98378.28
2023-10-28T02:34:08.736Z,98398.44
2023-10-28T02:44:13.074Z,98413.78
2023-10-28T02:54:16.137Z,98413.16
2023-10-28T03:04:20.493Z,98415.44
2023-10-28T03:14:23.525Z,98421.94
2023-10-28T03:24:27.745Z,98429.47
2023-10-28T03:34:31.259Z,98434.88
2023-10-28T03:44:35.570Z,98436.16
2023-10-28T03:54:38.431Z,98439.72
2023-10-28T04:04:42.728Z,98446.38
2023-10-28T04:14:45.624Z,98450.44
2023-10-28T04:24:49.819Z,98461.25
2023-10-28T04:34:59.143Z,98429.31
2023-10-28T04:45:07.413Z,98452.72
2023-10-28T04:55:11.744Z,98455.47
2023-10-28T05:05:15.985Z,98442.75
2023-10-28T05:15:19.071Z,98435.81
2023-10-28T05:25:23.288Z,98451.31
2023-10-28T05:35:26.075Z,98461.16
2023-10-28T05:45:30.378Z,98459.25
2023-10-28T05:55:33.560Z,98465.97
2023-10-28T06:05:37.830Z,98471.59
2023-10-28T06:15:42.640Z,98480.41
2023-10-28T06:25:46.943Z,98489.56
2023-10-28T06:35:49.786Z,98492.34
2023-10-28T06:45:54.673Z,98511.13
2023-10-28T06:55:57.583Z,98522.69
2023-10-28T07:06:01.794Z,98533.75
2023-10-28T07:16:05.616Z,98548.81
2023-10-28T07:26:09.879Z,98562.59
2023-10-28T07:36:13.569Z,98555.44
2023-10-28T07:46:18.050Z,98577.81
2023-10-28T07:56:21.353Z,98590.00
2023-10-28T08:06:34.907Z,98590.41
2023-10-28T08:16:38.113Z,98598.44
2023-10-28T08:26:44.231Z,98610.91
2023-10-28T08:36:49.949Z,98613.63
2023-10-28T08:46:54.304Z,98632.31
2023-10-28T08:56:58.937Z,98629.47
2023-10-28T09:07:05.864Z,98635.88
2023-10-28T09:17:11.505Z,98654.69
2023-10-28T09:27:16.161Z,98641.00
2023-10-28T09:37:18.984Z,98641.44
2023-10-28T09:47:24.753Z,98645.31
2023-10-28T09:57:28.199Z,98646.34
2023-10-28T10:07:32.358Z,98643.47
2023-10-28T10:17:40.503Z,98645.53
2023-10-28T10:27:45.779Z,98645.34
2023-10-28T10:37:49.752Z,98657.09
2023-10-28T10:47:54.095Z,98654.19
2023-10-28T10:57:57.180Z,98645.78
2023-10-28T11:08:01.500Z,98638.28
2023-10-28T11:18:04.596Z,98644.13
2023-10-28T11:28:11.249Z,98627.22
2023-10-28T11:38:14.163Z,98618.03
2023-10-28T11:48:18.346Z,98629.44
2023-10-28T11:58:21.139Z,98638.00
2023-10-28T12:08:25.340Z,98635.75
2023-10-28T12:18:28.266Z,98634.59
2023-10-28T12:28:32.420Z,98636.75
2023-10-28T12:38:35.562Z,98631.84
2023-10-28T12:48:39.734Z,98635.91
2023-10-28T12:58:42.563Z,98655.47
2023-10-28T13:08:46.968Z,98658.03
2023-10-28T13:18:49.794Z,98674.53
2023-10-28T13:28:54.792Z,98679.97
2023-10-28T13:38:57.584Z,98674.09
2023-10-28T13:49:01.751Z,98673.19
2023-10-28T13:59:05.140Z,98662.28
2023-10-28T14:09:10.882Z,98676.56
2023-10-28T14:19:13.692Z,98669.47
2023-10-28T14:29:17.933Z,98676.22
2023-10-28T14:39:20.770Z,98683.19
2023-10-28T14:49:24.953Z,98685.44
2023-10-28T14:59:38.401Z,98674.84
2023-10-28T15:09:48.334Z,98661.38
2023-10-28T15:19:51.742Z,98654.09
2023-10-28T15:29:55.970Z,98660.22
2023-10-28T15:39:58.909Z,98663.09
2023-10-28T15:50:04.113Z,98653.16
2023-10-28T16:00:09.250Z,98660.09
2023-10-28T16:10:14.063Z,98657.94
2023-10-28T16:20:17.135Z,98643.16
2023-10-28T16:30:21.377Z,98649.78
2023-10-28T16:40:24.215Z,98662.00
2023-10-28T16:50:29.307Z,98661.34
2023-10-28T17:00:32.421Z,98659.03
2023-10-28T17:10:36.737Z,98660.28
2023-10-28T17:20:39.606Z,98669.88
2023-10-28T17:30:44.577Z,98671.09
2023-10-28T17:40:47.602Z,98664.75
2023-10-28T17:50:51.772Z,98664.44
2023-10-28T18:00:55.878Z,98664.41
2023-10-28T18:11:00.201Z,98668.09
2023-10-28T18:21:03.165Z,98672.78
2023-10-28T18:31:08.061Z,98666.41
2023-10-28T18:41:11.600Z,98655.78
2023-10-28T18:51:15.905Z,98664.28
2023-10-28T19:01:19.928Z,98650.53
2023-10-28T19:11:24.222Z,98643.41
2023-10-28T19:21:27.138Z,98629.22
2023-10-28T19:31:32.786Z,98623.00
2023-10-28T19:41:35.664Z,98626.78
2023-10-28T19:51:40.163Z,98635.81
2023-10-28T20:01:43.064Z,98625.94
2023-10-28T20:11:47.299Z,98619.94
2023-10-28T20:21:50.217Z,98593.50
2023-10-28T20:31:54.414Z,98589.97
2023-10-28T20:41:57.640Z,98578.97
2023-10-28T20:52:02.078Z,98584.28
2023-10-28T21:02:06.225Z,98620.34
2023-10-28T21:12:11.386Z,98642.22
2023-10-28T21:22:15.905Z,98641.16
2023-10-28T21:32:21.786Z,98643.78
2023-10-28T21:42:24.732Z,98639.22
2023-10-28T21:52:29.082Z,98647.59
2023-10-28T22:02:32.044Z,98653.06
2023-10-28T22:12:36.341Z,98652.09
2023-10-28T22:22:39.719Z,98641.91
2023-10-28T22:32:43.891Z,98625.16
2023-10-28T22:42:46.946Z,98603.47
2023-10-28T22:52:51.215Z,98587.97
2023-10-28T23:02:54.153Z,98558.50
2023-10-28T23:12:58.899Z,98551.91
2023-10-28T23:23:02.466Z,98547.66
2023-10-28T23:33:07.438Z,98536.88
2023-10-28T23:43:10.377Z,98521.41
2023-10-28T23:53:16.783Z,98516.63
